sensor_id;sensor_type;location;lat;lon;timestamp;pressure;altitude;pressure_sealevel;temperature;humidity
63903;BME280;50072;50.678;13.938;2022-10-17T00:01:55;100345.78;;;10.73;100.00
63903;BME280;50072;50.678;13.938;2022-10-17T00:04:25;100340.47;;;10.70;100.00
63903;BME280;50072;50.678;13.938;2022-10-17T00:06:51;100341.41;;;10.66;100.00
63903;BME280;50072;50.678;13.938;2022-10-17T00:09:25;100353.09;;;10.62;100.00
63903;BME280;50072;50.678;13.938;2022-10-17T00:11:55;100354.91;;;10.60;100.00
63903;BME280;50072;50.678;13.938;2022-10-17T00:14:25;100351.38;;;10.58;100.00
63903;BME280;50072;50.678;13.938;2022-10-17T00:16:55;100351.47;;;10.48;100.00
63903;BME280;50072;50.678;13.938;2022-10-17T00:19:25;100363.09;;;10.49;100.00
63903;BME280;50072;50.678;13.938;2022-10-17T00:21:55;100356.94;;;10.42;100.00
63903;BME280;50072;50.678;13.938;2022-10-17T00:24:26;100372.06;;;10.42;100.00
63903;BME280;50072;50.678;13.938;2022-10-17T00:26:58;100364.13;;;10.37;100.00
63903;BME280;50072;50.678;13.938;2022-10-17T00:29:25;100364.16;;;10.31;100.00
63903;BME280;50072;50.678;13.938;2022-10-17T00:31:56;100374.00;;;10.29;100.00
63903;BME280;50072;50.678;13.938;2022-10-17T00:34:28;100363.31;;;10.27;100.00
63903;BME280;50072;50.678;13.938;2022-10-17T00:36:55;100367.84;;;10.22;100.00
63903;BME280;50072;50.678;13.938;2022-10-17T00:39:25;100365.19;;;10.21;100.00
63903;BME280;50072;50.678;13.938;2022-10-17T00:41:55;100358.09;;;10.18;100.00
63903;BME280;50072;50.678;13.938;2022-10-17T00:47:08;100360.78;;;10.16;100.00
63903;BME280;50072;50.678;13.938;2022-10-17T00:49:42;100354.56;;;10.14;100.00
63903;BME280;50072;50.678;13.938;2022-10-17T00:52:27;100359.00;;;10.17;100.00
63903;BME280;50072;50.678;13.938;2022-10-17T00:55:00;100353.69;;;10.14;100.00
63903;BME280;50072;50.678;13.938;2022-10-17T00:57:32;100361.72;;;10.12;100.00
63903;BME280;50072;50.678;13.938;2022-10-17T01:00:03;100369.84;;;10.06;100.00
63903;BME280;50072;50.678;13.938;2022-10-17T01:02:55;100371.59;;;10.07;100.00
63903;BME280;50072;50.678;13.938;2022-10-17T01:05:25;100374.28;;;10.04;100.00
63903;BME280;50072;50.678;13.938;2022-10-17T01:07:55;100366.41;;;9.95;100.00
63903;BME280;50072;50.678;13.938;2022-10-17T01:10:32;100376.16;;;9.97;100.00
63903;BME280;50072;50.678;13.938;2022-10-17T01:13:29;100377.97;;;9.95;100.00
63903;BME280;50072;50.678;13.938;2022-10-17T01:24:30;100380.66;;;9.94;100.00
63903;BME280;50072;50.678;13.938;2022-10-17T01:27:28;100378.06;;;9.88;100.00
63903;BME280;50072;50.678;13.938;2022-10-17T01:32:56;100379.88;;;9.82;100.00
63903;BME280;50072;50.678;13.938;2022-10-17T01:38:35;100377.28;;;9.75;100.00
63903;BME280;50072;50.678;13.938;2022-10-17T01:41:37;100379.06;;;9.74;100.00
63903;BME280;50072;50.678;13.938;2022-10-17T01:44:35;100384.47;;;9.71;100.00
63903;BME280;50072;50.678;13.938;2022-10-17T01:47:09;100377.34;;;9.68;100.00
63903;BME280;50072;50.678;13.938;2022-10-17T01:49:59;100374.69;;;9.67;100.00
63903;BME280;50072;50.678;13.938;2022-10-17T01:52:49;100369.38;;;9.64;100.00
63903;BME280;50072;50.678;13.938;2022-10-17T01:55:29;100376.50;;;9.65;100.00
63903;BME280;50072;50.678;13.938;2022-10-17T01:58:08;100380.94;;;9.64;100.00
63903;BME280;50072;50.678;13.938;2022-10-17T02:00:36;100380.97;;;9.63;100.00
63903;BME280;50072;50.678;13.938;2022-10-17T02:03:06;100389.88;;;9.62;100.00
63903;BME280;50072;50.678;13.938;2022-10-17T02:05:40;100382.78;;;9.61;100.00
63903;BME280;50072;50.678;13.938;2022-10-17T02:08:40;100381.94;;;9.56;100.00
63903;BME280;50072;50.678;13.938;2022-10-17T02:11:25;100381.97;;;9.53;100.00
63903;BME280;50072;50.678;13.938;2022-10-17T02:14:19;100379.31;;;9.49;100.00
63903;BME280;50072;50.678;13.938;2022-10-17T02:20:08;100375.75;;;9.47;100.00
63903;BME280;50072;50.678;13.938;2022-10-17T02:25:38;100382.06;;;9.40;100.00
63903;BME280;50072;50.678;13.938;2022-10-17T02:28:32;100383.88;;;9.40;100.00
63903;BME280;50072;50.678;13.938;2022-10-17T02:31:26;100377.66;;;9.39;100.00
63903;BME280;50072;50.678;13.938;2022-10-17T02:34:04;100376.75;;;9.37;100.00
63903;BME280;50072;50.678;13.938;2022-10-17T02:36:57;100383.84;;;9.41;100.00
63903;BME280;50072;50.678;13.938;2022-10-17T02:39:26;100373.16;;;9.41;100.00
63903;BME280;50072;50.678;13.938;2022-10-17T02:41:57;100371.34;;;9.43;100.00
63903;BME280;50072;50.678;13.938;2022-10-17T02:44:25;100382.00;;;9.49;100.00
63903;BME280;50072;50.678;13.938;2022-10-17T02:47:04;100397.09;;;9.54;100.00
63903;BME280;50072;50.678;13.938;2022-10-17T02:49:40;100382.81;;;9.55;100.00
63903;BME280;50072;50.678;13.938;2022-10-17T02:55:24;100395.19;;;9.68;100.00
63903;BME280;50072;50.678;13.938;2022-10-17T02:57:59;100396.00;;;9.75;100.00
63903;BME280;50072;50.678;13.938;2022-10-17T03:00:27;100388.00;;;9.73;100.00
63903;BME280;50072;50.678;13.938;2022-10-17T03:02:55;100389.72;;;9.77;100.00
63903;BME280;50072;50.678;13.938;2022-10-17T03:05:27;100392.41;;;9.77;100.00
63903;BME280;50072;50.678;13.938;2022-10-17T03:07:55;100395.06;;;9.77;100.00
63903;BME280;50072;50.678;13.938;2022-10-17T03:10:25;100391.59;;;9.72;100.00
63903;BME280;50072;50.678;13.938;2022-10-17T03:12:55;100395.06;;;9.77;100.00
63903;BME280;50072;50.678;13.938;2022-10-17T03:15:25;100395.13;;;9.74;100.00
63903;BME280;50072;50.678;13.938;2022-10-17T03:17:55;100387.13;;;9.71;100.00
63903;BME280;50072;50.678;13.938;2022-10-17T03:20:26;100396.00;;;9.73;100.00
63903;BME280;50072;50.678;13.938;2022-10-17T03:22:55;100399.59;;;9.72;100.00
63903;BME280;50072;50.678;13.938;2022-10-17T03:25:26;100392.44;;;9.74;100.00
63903;BME280;50072;50.678;13.938;2022-10-17T03:27:58;100407.50;;;9.81;100.00
63903;BME280;50072;50.678;13.938;2022-10-17T03:30:25;100403.03;;;9.85;100.00
63903;BME280;50072;50.678;13.938;2022-10-17T03:32:58;100409.19;;;9.95;100.00
63903;BME280;50072;50.678;13.938;2022-10-17T03:35:26;100402.88;;;10.00;100.00
63903;BME280;50072;50.678;13.938;2022-10-17T03:37:55;100414.38;;;10.07;100.00
63903;BME280;50072;50.678;13.938;2022-10-17T03:40:25;100408.03;;;10.16;100.00
63903;BME280;50072;50.678;13.938;2022-10-17T03:42:55;100420.44;;;10.22;100.00
63903;BME280;50072;50.678;13.938;2022-10-17T03:45:27;100423.94;;;10.28;100.00
63903;BME280;50072;50.678;13.938;2022-10-17T03:47:54;100421.22;;;10.34;100.00
63903;BME280;50072;50.678;13.938;2022-10-17T03:50:25;100417.63;;;10.37;100.00
63903;BME280;50072;50.678;13.938;2022-10-17T03:52:55;100433.63;;;10.43;100.00
63903;BME280;50072;50.678;13.938;2022-10-17T03:55:25;100418.53;;;10.34;100.00
63903;BME280;50072;50.678;13.938;2022-10-17T03:57:57;100420.25;;;10.42;100.00
63903;BME280;50072;50.678;13.938;2022-10-17T04:00:23;100430.00;;;10.47;100.00
63903;BME280;50072;50.678;13.938;2022-10-17T04:02:50;100435.28;;;10.53;100.00
63903;BME280;50072;50.678;13.938;2022-10-17T04:05:18;100442.31;;;10.61;100.00
63903;BME280;50072;50.678;13.938;2022-10-17T04:07:43;100436.03;;;10.65;100.00
63903;BME280;50072;50.678;13.938;2022-10-17T04:10:09;100439.59;;;10.65;100.00
63903;BME280;50072;50.678;13.938;2022-10-17T04:12:36;100444.84;;;10.75;100.00
63903;BME280;50072;50.678;13.938;2022-10-17T04:15:02;100445.66;;;10.78;100.00
63903;BME280;50072;50.678;13.938;2022-10-17T04:17:32;100448.25;;;10.84;100.00
63903;BME280;50072;50.678;13.938;2022-10-17T04:19:57;100437.56;;;10.83;100.00
63903;BME280;50072;50.678;13.938;2022-10-17T04:22:23;100440.16;;;10.91;100.00
63903;BME280;50072;50.678;13.938;2022-10-17T04:24:51;100441.88;;;10.95;100.00
63903;BME280;50072;50.678;13.938;2022-10-17T04:27:17;100450.78;;;10.95;100.00
63903;BME280;50072;50.678;13.938;2022-10-17T04:29:43;100451.63;;;11.00;100.00
63903;BME280;50072;50.678;13.938;2022-10-17T04:32:09;100455.09;;;11.05;100.00
63903;BME280;50072;50.678;13.938;2022-10-17T04:34:34;100455.97;;;11.08;100.00
63903;BME280;50072;50.678;13.938;2022-10-17T04:37:02;100459.47;;;11.11;100.00
63903;BME280;50072;50.678;13.938;2022-10-17T04:39:30;100464.78;;;11.14;100.00
63903;BME280;50072;50.678;13.938;2022-10-17T04:42:05;100463.03;;;11.15;100.00
63903;BME280;50072;50.678;13.938;2022-10-17T04:44:31;100465.56;;;11.22;100.00
63903;BME280;50072;50.678;13.938;2022-10-17T04:46:58;100470.84;;;11.29;100.00
63903;BME280;50072;50.678;13.938;2022-10-17T04:49:24;100458.34;;;11.29;100.00
63903;BME280;50072;50.678;13.938;2022-10-17T04:51:52;100474.25;;;11.38;100.00
63903;BME280;50072;50.678;13.938;2022-10-17T04:54:19;100465.28;;;11.41;100.00
63903;BME280;50072;50.678;13.938;2022-10-17T04:56:45;100472.34;;;11.47;100.00
63903;BME280;50072;50.678;13.938;2022-10-17T04:59:12;100466.09;;;11.48;100.00
63903;BME280;50072;50.678;13.938;2022-10-17T05:01:39;100465.16;;;11.50;100.00
63903;BME280;50072;50.678;13.938;2022-10-17T05:04:06;100467.78;;;11.53;100.00
63903;BME280;50072;50.678;13.938;2022-10-17T05:06:32;100475.72;;;11.60;100.00
63903;BME280;50072;50.678;13.938;2022-10-17T05:08:59;100473.03;;;11.60;100.00
63903;BME280;50072;50.678;13.938;2022-10-17T05:11:27;100484.59;;;11.65;100.00
63903;BME280;50072;50.678;13.938;2022-10-17T05:13:57;100486.34;;;11.67;100.00
63903;BME280;50072;50.678;13.938;2022-10-17T05:16:25;100488.06;;;11.70;100.00
63903;BME280;50072;50.678;13.938;2022-10-17T05:18:53;100482.72;;;11.68;100.00
63903;BME280;50072;50.678;13.938;2022-10-17T05:21:23;100488.00;;;11.74;100.00
63903;BME280;50072;50.678;13.938;2022-10-17T05:23:50;100487.03;;;11.77;100.00
63903;BME280;50072;50.678;13.938;2022-10-17T05:26:18;100483.44;;;11.80;100.00
63903;BME280;50072;50.678;13.938;2022-10-17T05:28:45;100486.06;;;11.83;100.00
63903;BME280;50072;50.678;13.938;2022-10-17T05:31:13;100490.47;;;11.85;100.00
63903;BME280;50072;50.678;13.938;2022-10-17T05:33:39;100487.81;;;11.84;100.00
63903;BME280;50072;50.678;13.938;2022-10-17T05:36:07;100496.69;;;11.89;100.00
63903;BME280;50072;50.678;13.938;2022-10-17T05:38:33;100494.84;;;11.91;100.00
63903;BME280;50072;50.678;13.938;2022-10-17T05:41:00;100508.25;;;11.94;100.00
63903;BME280;50072;50.678;13.938;2022-10-17T05:43:29;100510.88;;;11.99;100.00
63903;BME280;50072;50.678;13.938;2022-10-17T05:45:55;100508.19;;;11.99;100.00
63903;BME280;50072;50.678;13.938;2022-10-17T05:48:21;100516.97;;;12.07;100.00
63903;BME280;50072;50.678;13.938;2022-10-17T05:50:57;100522.31;;;12.10;100.00
63903;BME280;50072;50.678;13.938;2022-10-17T05:53:29;100520.41;;;12.15;100.00
63903;BME280;50072;50.678;13.938;2022-10-17T05:55:57;100527.56;;;12.15;100.00
63903;BME280;50072;50.678;13.938;2022-10-17T05:58:26;100513.28;;;12.14;100.00
63903;BME280;50072;50.678;13.938;2022-10-17T06:01:03;100525.66;;;12.23;100.00
63903;BME280;50072;50.678;13.938;2022-10-17T06:03:30;100524.69;;;12.27;100.00
63903;BME280;50072;50.678;13.938;2022-10-17T06:06:03;100523.72;;;12.30;100.00
63903;BME280;50072;50.678;13.938;2022-10-17T06:08:30;100532.53;;;12.38;100.00
63903;BME280;50072;50.678;13.938;2022-10-17T06:10:56;100523.56;;;12.39;100.00
63903;BME280;50072;50.678;13.938;2022-10-17T06:13:22;100531.53;;;12.43;100.00
63903;BME280;50072;50.678;13.938;2022-10-17T06:15:54;100536.75;;;12.51;100.00
63903;BME280;50072;50.678;13.938;2022-10-17T06:18:21;100536.66;;;12.56;100.00
63903;BME280;50072;50.678;13.938;2022-10-17T06:20:47;100550.00;;;12.60;100.00
63903;BME280;50072;50.678;13.938;2022-10-17T06:23:13;100546.34;;;12.65;100.00
63903;BME280;50072;50.678;13.938;2022-10-17T06:25:40;100549.84;;;12.70;100.00
63903;BME280;50072;50.678;13.938;2022-10-17T06:28:07;100551.59;;;12.71;100.00
63903;BME280;50072;50.678;13.938;2022-10-17T06:30:37;100553.16;;;12.81;100.00
63903;BME280;50072;50.678;13.938;2022-10-17T06:33:04;100554.00;;;12.85;100.00
63903;BME280;50072;50.678;13.938;2022-10-17T06:35:31;100562.88;;;12.90;100.00
63903;BME280;50072;50.678;13.938;2022-10-17T06:37:58;100561.84;;;12.95;100.00
63903;BME280;50072;50.678;13.938;2022-10-17T06:40:25;100564.44;;;13.00;100.00
63903;BME280;50072;50.678;13.938;2022-10-17T06:42:51;100568.81;;;13.06;100.00
63903;BME280;50072;50.678;13.938;2022-10-17T06:45:17;100566.88;;;13.11;100.00
63903;BME280;50072;50.678;13.938;2022-10-17T06:47:43;100570.34;;;13.18;100.00
63903;BME280;50072;50.678;13.938;2022-10-17T06:50:25;100578.25;;;13.25;100.00
63903;BME280;50072;50.678;13.938;2022-10-17T06:52:56;100571.88;;;13.29;100.00
63903;BME280;50072;50.678;13.938;2022-10-17T06:55:25;100581.63;;;13.37;100.00
63903;BME280;50072;50.678;13.938;2022-10-17T06:57:55;100576.16;;;13.41;100.00
63903;BME280;50072;50.678;13.938;2022-10-17T07:00:26;100576.00;;;13.48;100.00
63903;BME280;50072;50.678;13.938;2022-10-17T07:02:55;100583.88;;;13.57;100.00
63903;BME280;50072;50.678;13.938;2022-10-17T07:05:24;100578.31;;;13.64;100.00
63903;BME280;50072;50.678;13.938;2022-10-17T07:07:55;100579.13;;;13.68;100.00
63903;BME280;50072;50.678;13.938;2022-10-17T07:10:25;100584.25;;;13.79;100.00
63903;BME280;50072;50.678;13.938;2022-10-17T07:12:55;100574.25;;;13.84;100.00
63903;BME280;50072;50.678;13.938;2022-10-17T07:15:26;100580.31;;;13.94;100.00
63903;BME280;50072;50.678;13.938;2022-10-17T07:17:54;100590.03;;;14.00;100.00
63903;BME280;50072;50.678;13.938;2022-10-17T07:20:23;100598.88;;;14.05;100.00
63903;BME280;50072;50.678;13.938;2022-10-17T07:22:55;100596.06;;;14.11;100.00
63903;BME280;50072;50.678;13.938;2022-10-17T07:25:25;100593.25;;;14.15;100.00
63903;BME280;50072;50.678;13.938;2022-10-17T07:27:57;100587.81;;;14.17;100.00
63903;BME280;50072;50.678;13.938;2022-10-17T07:30:23;100597.47;;;14.26;100.00
63903;BME280;50072;50.678;13.938;2022-10-17T07:32:55;100601.72;;;14.35;100.00
63903;BME280;50072;50.678;13.938;2022-10-17T07:35:25;100594.50;;;14.37;100.00
63903;BME280;50072;50.678;13.938;2022-10-17T07:37:55;100608.72;;;14.42;100.00
63903;BME280;50072;50.678;13.938;2022-10-17T07:40:21;100600.56;;;14.45;100.00
63903;BME280;50072;50.678;13.938;2022-10-17T07:42:55;100612.00;;;14.53;100.00
63903;BME280;50072;50.678;13.938;2022-10-17T07:45:26;100615.47;;;14.58;100.00
63903;BME280;50072;50.678;13.938;2022-10-17T07:47:56;100605.53;;;14.62;100.00
63903;BME280;50072;50.678;13.938;2022-10-17T07:50:22;100614.38;;;14.67;100.00
63903;BME280;50072;50.678;13.938;2022-10-17T07:52:55;100608.91;;;14.70;100.00
63903;BME280;50072;50.678;13.938;2022-10-17T07:55:25;100606.03;;;14.76;100.00
63903;BME280;50072;50.678;13.938;2022-10-17T07:57:56;100613.13;;;14.80;100.00
63903;BME280;50072;50.678;13.938;2022-10-17T08:00:26;100607.72;;;14.80;99.86
63903;BME280;50072;50.678;13.938;2022-10-17T08:02:57;100613.84;;;14.87;99.84
63903;BME280;50072;50.678;13.938;2022-10-17T08:05:25;100618.31;;;14.88;99.06
63903;BME280;50072;50.678;13.938;2022-10-17T08:07:55;100619.03;;;14.93;99.18
63903;BME280;50072;50.678;13.938;2022-10-17T08:10:26;100619.00;;;14.95;98.66
63903;BME280;50072;50.678;13.938;2022-10-17T08:12:56;100623.47;;;14.96;98.88
63903;BME280;50072;50.678;13.938;2022-10-17T08:15:27;100619.72;;;15.01;97.66
63903;BME280;50072;50.678;13.938;2022-10-17T08:17:55;100616.09;;;15.02;97.10
63903;BME280;50072;50.678;13.938;2022-10-17T08:20:25;100615.91;;;15.09;96.59
63903;BME280;50072;50.678;13.938;2022-10-17T08:22:55;100610.44;;;15.12;97.25
63903;BME280;50072;50.678;13.938;2022-10-17T08:25:25;100617.56;;;15.14;97.00
63903;BME280;50072;50.678;13.938;2022-10-17T08:27:53;100623.53;;;15.26;96.49
63903;BME280;50072;50.678;13.938;2022-10-17T08:30:25;100618.94;;;15.29;95.08
63903;BME280;50072;50.678;13.938;2022-10-17T08:32:57;100633.34;;;15.28;95.39
63903;BME280;50072;50.678;13.938;2022-10-17T08:35:25;100630.56;;;15.31;95.06
63903;BME280;50072;50.678;13.938;2022-10-17T08:37:57;100622.38;;;15.34;95.05
63903;BME280;50072;50.678;13.938;2022-10-17T08:40:28;100624.00;;;15.40;95.12
63903;BME280;50072;50.678;13.938;2022-10-17T08:45:56;100623.69;;;15.51;92.33
63903;BME280;50072;50.678;13.938;2022-10-17T08:48:27;100619.00;;;15.58;92.66
63903;BME280;50072;50.678;13.938;2022-10-17T08:51:14;100616.94;;;15.66;91.46
63903;BME280;50072;50.678;13.938;2022-10-17T08:56:43;100611.00;;;15.84;92.53
63903;BME280;50072;50.678;13.938;2022-10-17T08:59:28;100621.69;;;15.87;90.70
63903;BME280;50072;50.678;13.938;2022-10-17T09:08:04;100616.16;;;15.92;89.30
63903;BME280;50072;50.678;13.938;2022-10-17T09:11:01;100622.22;;;16.00;89.67
63903;BME280;50072;50.678;13.938;2022-10-17T09:13:53;100619.28;;;16.07;89.31
63903;BME280;50072;50.678;13.938;2022-10-17T09:17:01;100610.69;;;16.22;88.56
63903;BME280;50072;50.678;13.938;2022-10-17T09:19:45;100614.69;;;16.37;88.41
63903;BME280;50072;50.678;13.938;2022-10-17T09:22:24;100613.81;;;16.36;87.38
63903;BME280;50072;50.678;13.938;2022-10-17T09:25:05;100615.16;;;16.50;88.09
63903;BME280;50072;50.678;13.938;2022-10-17T09:28:00;100618.47;;;16.58;86.20
63903;BME280;50072;50.678;13.938;2022-10-17T09:30:39;100611.66;;;16.98;86.27
63903;BME280;50072;50.678;13.938;2022-10-17T09:33:21;100609.88;;;17.22;85.18
63903;BME280;50072;50.678;13.938;2022-10-17T09:35:57;100607.19;;;17.46;86.20
63903;BME280;50072;50.678;13.938;2022-10-17T09:38:33;100613.06;;;17.57;84.28
63903;BME280;50072;50.678;13.938;2022-10-17T09:41:06;100611.03;;;18.08;83.19
63903;BME280;50072;50.678;13.938;2022-10-17T09:43:55;100600.19;;;18.94;80.98
63903;BME280;50072;50.678;13.938;2022-10-17T09:46:31;100610.34;;;19.49;77.68
63903;BME280;50072;50.678;13.938;2022-10-17T09:49:11;100610.53;;;20.21;71.74
63903;BME280;50072;50.678;13.938;2022-10-17T09:51:56;100607.28;;;20.68;71.04
63903;BME280;50072;50.678;13.938;2022-10-17T09:54:35;100606.19;;;21.39;68.20
63903;BME280;50072;50.678;13.938;2022-10-17T09:57:25;100606.28;;;22.35;63.53
63903;BME280;50072;50.678;13.938;2022-10-17T10:00:12;100613.66;;;22.93;62.17
63903;BME280;50072;50.678;13.938;2022-10-17T10:02:48;100602.88;;;23.50;59.20
63903;BME280;50072;50.678;13.938;2022-10-17T10:05:25;100596.47;;;24.07;58.63
63903;BME280;50072;50.678;13.938;2022-10-17T10:08:04;100609.69;;;24.27;55.69
63903;BME280;50072;50.678;13.938;2022-10-17T10:10:37;100614.78;;;24.74;58.06
63903;BME280;50072;50.678;13.938;2022-10-17T10:13:18;100607.91;;;25.07;55.85
63903;BME280;50072;50.678;13.938;2022-10-17T10:15:49;100604.19;;;24.95;54.47
63903;BME280;50072;50.678;13.938;2022-10-17T10:21:08;100601.34;;;24.56;53.20
63903;BME280;50072;50.678;13.938;2022-10-17T10:23:37;100602.34;;;24.01;57.04
63903;BME280;50072;50.678;13.938;2022-10-17T10:26:26;100588.22;;;24.21;53.46
63903;BME280;50072;50.678;13.938;2022-10-17T10:29:17;100597.28;;;25.02;51.91
63903;BME280;50072;50.678;13.938;2022-10-17T10:32:10;100586.78;;;25.47;51.27
63903;BME280;50072;50.678;13.938;2022-10-17T10:34:47;100590.72;;;25.56;52.15
63903;BME280;50072;50.678;13.938;2022-10-17T10:37:20;100588.94;;;25.55;51.10
63903;BME280;50072;50.678;13.938;2022-10-17T10:39:53;100582.03;;;25.49;50.21
63903;BME280;50072;50.678;13.938;2022-10-17T10:44:48;100584.50;;;25.41;52.16
63903;BME280;50072;50.678;13.938;2022-10-17T10:47:21;100573.19;;;25.07;52.00
63903;BME280;50072;50.678;13.938;2022-10-17T10:50:06;100568.94;;;25.79;49.39
63903;BME280;50072;50.678;13.938;2022-10-17T10:52:41;100568.50;;;26.33;49.52
63903;BME280;50072;50.678;13.938;2022-10-17T10:55:23;100574.66;;;27.31;49.01
63903;BME280;50072;50.678;13.938;2022-10-17T10:57:52;100574.56;;;27.44;45.33
63903;BME280;50072;50.678;13.938;2022-10-17T11:00:23;100568.78;;;27.81;46.38
63903;BME280;50072;50.678;13.938;2022-10-17T11:05:40;100565.38;;;28.32;43.18
63903;BME280;50072;50.678;13.938;2022-10-17T11:08:19;100566.47;;;27.97;43.79
63903;BME280;50072;50.678;13.938;2022-10-17T11:13:24;100564.41;;;28.54;44.04
63903;BME280;50072;50.678;13.938;2022-10-17T11:18:29;100557.38;;;29.56;42.68
63903;BME280;50072;50.678;13.938;2022-10-17T11:21:14;100554.91;;;29.63;42.20
63903;BME280;50072;50.678;13.938;2022-10-17T11:24:03;100558.31;;;28.93;40.32
63903;BME280;50072;50.678;13.938;2022-10-17T11:26:34;100551.00;;;28.82;42.96
63903;BME280;50072;50.678;13.938;2022-10-17T11:29:04;100544.03;;;29.30;41.18
63903;BME280;50072;50.678;13.938;2022-10-17T11:31:39;100542.97;;;29.52;40.19
63903;BME280;50072;50.678;13.938;2022-10-17T11:34:15;100540.44;;;29.39;40.73
63903;BME280;50072;50.678;13.938;2022-10-17T11:36:47;100542.34;;;29.39;40.33
63903;BME280;50072;50.678;13.938;2022-10-17T11:39:30;100534.31;;;29.76;40.01
63903;BME280;50072;50.678;13.938;2022-10-17T11:42:05;100540.19;;;29.83;39.89
63903;BME280;50072;50.678;13.938;2022-10-17T11:44:39;100538.53;;;29.81;38.85
63903;BME280;50072;50.678;13.938;2022-10-17T11:49:57;100541.75;;;29.76;38.73
63903;BME280;50072;50.678;13.938;2022-10-17T11:52:32;100525.34;;;29.34;40.45
63903;BME280;50072;50.678;13.938;2022-10-17T11:55:29;100526.13;;;28.19;42.92
63903;BME280;50072;50.678;13.938;2022-10-17T12:00:28;100518.13;;;26.34;46.46
63903;BME280;50072;50.678;13.938;2022-10-17T12:03:20;100517.13;;;25.63;48.17
63903;BME280;50072;50.678;13.938;2022-10-17T12:06:15;100524.25;;;24.37;51.05
63903;BME280;50072;50.678;13.938;2022-10-17T12:11:41;100515.56;;;23.48;54.27
63903;BME280;50072;50.678;13.938;2022-10-17T12:17:02;100515.38;;;22.93;56.14
63903;BME280;50072;50.678;13.938;2022-10-17T12:19:36;100510.00;;;22.63;57.11
63903;BME280;50072;50.678;13.938;2022-10-17T12:22:26;100512.63;;;22.50;57.99
63903;BME280;50072;50.678;13.938;2022-10-17T12:25:00;100513.97;;;21.97;59.98
63903;BME280;50072;50.678;13.938;2022-10-17T12:27:43;100512.75;;;21.86;60.63
63903;BME280;50072;50.678;13.938;2022-10-17T12:32:37;100507.66;;;21.80;61.64
63903;BME280;50072;50.678;13.938;2022-10-17T12:35:04;100495.91;;;21.64;62.04
63903;BME280;50072;50.678;13.938;2022-10-17T12:51:19;100480.09;;;22.90;58.44
63903;BME280;50072;50.678;13.938;2022-10-17T12:54:10;100469.88;;;23.65;58.22
63903;BME280;50072;50.678;13.938;2022-10-17T12:56:48;100469.75;;;24.46;56.35
63903;BME280;50072;50.678;13.938;2022-10-17T12:59:20;100469.13;;;24.94;53.22
63903;BME280;50072;50.678;13.938;2022-10-17T13:01:51;100460.75;;;25.35;49.83
63903;BME280;50072;50.678;13.938;2022-10-17T13:04:18;100466.94;;;25.74;50.66
63903;BME280;50072;50.678;13.938;2022-10-17T13:06:53;100466.16;;;26.09;48.36
63903;BME280;50072;50.678;13.938;2022-10-17T13:09:30;100466.50;;;25.80;48.32
63903;BME280;50072;50.678;13.938;2022-10-17T13:11:59;100470.84;;;26.31;48.91
63903;BME280;50072;50.678;13.938;2022-10-17T13:14:26;100465.88;;;26.47;47.35
63903;BME280;50072;50.678;13.938;2022-10-17T13:16:55;100467.41;;;26.63;46.76
63903;BME280;50072;50.678;13.938;2022-10-17T13:19:24;100470.81;;;27.00;45.94
63903;BME280;50072;50.678;13.938;2022-10-17T13:21:58;100461.47;;;27.03;45.10
63903;BME280;50072;50.678;13.938;2022-10-17T13:24:35;100469.59;;;27.04;45.23
63903;BME280;50072;50.678;13.938;2022-10-17T13:27:03;100460.09;;;26.86;45.94
63903;BME280;50072;50.678;13.938;2022-10-17T13:29:29;100458.28;;;26.40;46.82
63903;BME280;50072;50.678;13.938;2022-10-17T13:32:03;100462.41;;;26.57;46.10
63903;BME280;50072;50.678;13.938;2022-10-17T13:34:31;100461.16;;;26.49;46.19
63903;BME280;50072;50.678;13.938;2022-10-17T13:37:01;100466.91;;;26.58;46.04
63903;BME280;50072;50.678;13.938;2022-10-17T13:39:32;100463.84;;;26.74;45.52
63903;BME280;50072;50.678;13.938;2022-10-17T13:42:02;100461.00;;;26.86;45.81
63903;BME280;50072;50.678;13.938;2022-10-17T13:44:32;100464.22;;;27.03;45.50
63903;BME280;50072;50.678;13.938;2022-10-17T13:46:58;100458.84;;;27.01;45.54
63903;BME280;50072;50.678;13.938;2022-10-17T13:49:28;100464.47;;;26.89;45.91
63903;BME280;50072;50.678;13.938;2022-10-17T13:51:56;100457.63;;;26.36;46.43
63903;BME280;50072;50.678;13.938;2022-10-17T13:54:43;100454.69;;;26.15;46.31
63903;BME280;50072;50.678;13.938;2022-10-17T13:57:17;100456.03;;;25.61;47.65
63903;BME280;50072;50.678;13.938;2022-10-17T13:59:45;100454.41;;;25.21;49.00
63903;BME280;50072;50.678;13.938;2022-10-17T14:02:22;100461.72;;;25.21;49.67
63903;BME280;50072;50.678;13.938;2022-10-17T14:10:04;100472.13;;;24.25;52.17
63903;BME280;50072;50.678;13.938;2022-10-17T14:12:32;100468.72;;;24.09;52.96
63903;BME280;50072;50.678;13.938;2022-10-17T14:15:01;100475.50;;;24.03;53.94
63903;BME280;50072;50.678;13.938;2022-10-17T14:17:28;100473.88;;;23.86;54.87
63903;BME280;50072;50.678;13.938;2022-10-17T14:19:59;100467.94;;;23.52;56.36
63903;BME280;50072;50.678;13.938;2022-10-17T14:22:33;100471.31;;;23.29;56.70
63903;BME280;50072;50.678;13.938;2022-10-17T14:25:00;100465.25;;;22.80;58.23
63903;BME280;50072;50.678;13.938;2022-10-17T14:27:51;100464.41;;;22.80;58.45
63903;BME280;50072;50.678;13.938;2022-10-17T14:30:37;100461.56;;;22.52;59.65